Ferryhill, United Kingdom
Current Conditions -  °F | °C
As of 9:20 PM on Thursday 23 Oct 2014 (Local Time) from EGNV Reporting Station
Scattered Clouds Scattered Clouds  
Wind Chill: 14°   Ceiling: Unl
Heat Index: 14°   Visibility: 6mi
Dew Point: 11°   Wind: 12mph
Humidity: 82%   Direction: 200°SSW
Pressure: 29.83"   Gusts: NA
Location:  54.68°N, 1.55°W
Report Text: EGNV 232020Z 20010KT 9999 FEW015 SCT025 14/11 Q1010
Loading
Personal Weather Stations






























Interactive Weather Map
Tropical Storm Tracking
New forecast layout! Learn more

10-Day Weather Forecast

Advertisements
Track Severe Weather on mobile